Time;durP1;ratioP1;P1;durP2;ratioP2;P2;SDS_P1;SDS_P2;PMS_P1;PMS_P2;Temp;Humidity;BMP_temperature;BMP_pressure;BME280_temperature;BME280_humidity;BME280_pressure;Samples;Min_cycle;Max_cycle;Signal;HPM_P1;HPM_P2
2021/08/25 00:00:57;;;;;;;3.60;1.95;;;;;;;20.12;58.20;100027.19;5005617;28;20038;-88
2021/08/25 00:03:25;;;;;;;2.80;1.20;;;;;;;20.27;58.21;100027.56;5007997;28;20496;-88
2021/08/25 00:05:52;;;;;;;2.10;1.40;;;;;;;19.73;59.48;100023.78;5011553;28;20423;-88
2021/08/25 00:08:20;;;;;;;2.42;1.60;;;;;;;19.86;59.18;100026.13;5011971;28;20104;-89
2021/08/25 00:10:47;;;;;;;2.30;1.27;;;;;;;19.75;59.68;100027.13;5016406;28;20508;-87
2021/08/25 00:13:21;;;;;;;6.70;1.83;;;;;;;19.75;59.87;100021.00;5009567;28;20038;-87
2021/08/25 00:15:52;;;;;;;2.72;1.17;;;;;;;19.47;60.67;100022.66;5010638;28;20050;-86
2021/08/25 00:18:19;;;;;;;3.30;1.15;;;;;;;19.54;60.88;100026.41;5011415;28;20045;-87
2021/08/25 00:20:46;;;;;;;1.95;1.30;;;;;;;19.36;61.52;100027.09;5011557;28;20042;-87
2021/08/25 00:23:12;;;;;;;1.40;1.30;;;;;;;19.51;61.25;100019.59;5009600;28;20120;-88
2021/08/25 00:25:39;;;;;;;7.80;1.70;;;;;;;19.40;61.45;100019.75;5009958;28;20050;-88
2021/08/25 00:28:06;;;;;;;1.92;1.50;;;;;;;19.46;61.26;100016.53;5012095;28;20041;-92
2021/08/25 00:30:33;;;;;;;3.80;1.55;;;;;;;19.43;61.91;100018.63;5013321;28;20092;-91
2021/08/25 00:32:59;;;;;;;1.58;1.20;;;;;;;19.43;61.81;100011.53;5013162;28;20077;-92
2021/08/25 00:35:26;;;;;;;2.95;2.00;;;;;;;19.58;61.38;100017.22;5013401;28;20057;-91
2021/08/25 00:37:53;;;;;;;3.03;1.70;;;;;;;19.48;62.02;100013.75;5012999;28;20096;-91
2021/08/25 00:40:20;;;;;;;1.90;1.77;;;;;;;19.23;63.22;100020.41;5013344;28;20077;-89
2021/08/25 00:42:47;;;;;;;2.38;1.33;;;;;;;19.16;63.23;100011.38;5012705;28;20053;-90
2021/08/25 00:45:14;;;;;;;4.03;1.15;;;;;;;19.21;63.30;100025.00;5013275;28;20572;-90
2021/08/25 00:47:42;;;;;;;5.28;1.73;;;;;;;19.14;63.91;100015.97;5013620;28;20092;-89
2021/08/25 00:50:11;;;;;;;2.75;1.52;;;;;;;19.26;63.02;100015.69;5012581;28;20037;-90
2021/08/25 00:52:41;;;;;;;5.30;1.50;;;;;;;19.15;63.70;100018.47;5006973;28;20436;-88
2021/08/25 00:55:11;;;;;;;5.25;2.58;;;;;;;19.28;63.65;100016.41;5012765;28;20440;-88
2021/08/25 00:57:39;;;;;;;1.77;1.35;;;;;;;19.32;63.31;100020.41;5012982;28;20042;-88
2021/08/25 01:00:07;;;;;;;1.95;1.35;;;;;;;19.52;62.82;100023.06;5012727;28;20049;-87
2021/08/25 01:02:58;;;;;;;2.97;1.20;;;;;;;19.88;62.09;100037.44;5012972;28;20137;-87
2021/08/25 01:05:26;;;;;;;3.78;1.30;;;;;;;19.34;63.48;100023.78;5012206;28;20042;-87
2021/08/25 01:07:54;;;;;;;2.78;1.50;;;;;;;19.22;64.50;100035.44;5013071;28;20400;-88
2021/08/25 01:10:29;;;;;;;1.58;1.40;;;;;;;19.11;64.96;100032.91;5012835;28;20512;-88
2021/08/25 01:13:03;;;;;;;4.55;1.30;;;;;;;19.05;65.07;100029.00;5012417;28;20489;-89
2021/08/25 01:15:35;;;;;;;3.42;1.90;;;;;;;19.10;65.22;100031.25;5013190;28;20420;-90
2021/08/25 01:18:08;;;;;;;1.88;1.30;;;;;;;19.08;65.63;100028.75;5013315;28;20084;-90
2021/08/25 01:20:35;;;;;;;2.22;1.23;;;;;;;18.96;65.95;100028.97;5013438;28;20104;-89
2021/08/25 01:23:03;;;;;;;4.75;1.95;;;;;;;18.95;66.38;100037.88;5012889;28;20060;-87
2021/08/25 01:25:32;;;;;;;3.50;1.42;;;;;;;19.05;66.11;100038.75;5012760;28;20456;-88
2021/08/25 01:28:03;;;;;;;2.55;1.40;;;;;;;19.06;66.57;100043.03;5012771;28;20060;-89
2021/08/25 01:30:33;;;;;;;2.55;1.60;;;;;;;18.93;66.56;100029.28;5013328;28;20046;-89
2021/08/25 01:33:00;;;;;;;5.22;2.75;;;;;;;18.76;67.30;100039.50;5011925;28;20053;-89
2021/08/25 01:35:38;;;;;;;2.17;1.90;;;;;;;18.83;67.31;100045.09;5013086;28;20080;-89
2021/08/25 01:38:06;;;;;;;2.80;1.80;;;;;;;18.80;67.39;100040.06;5012297;28;20038;-90
2021/08/25 01:40:33;;;;;;;4.13;1.42;;;;;;;18.80;67.68;100050.63;5012513;28;20045;-89
2021/08/25 01:43:00;;;;;;;1.95;1.40;;;;;;;18.73;67.94;100046.84;5012317;28;20038;-89
2021/08/25 01:45:27;;;;;;;4.38;1.45;;;;;;;18.79;67.95;100047.16;5012780;28;20046;-89
2021/08/25 01:47:53;;;;;;;3.13;1.60;;;;;;;18.70;68.44;100050.63;5012847;28;20045;-90
2021/08/25 01:50:20;;;;;;;12.52;2.38;;;;;;;18.75;68.32;100055.47;5012395;28;20055;-89
2021/08/25 01:52:47;;;;;;;4.28;1.52;;;;;;;18.72;68.61;100053.09;5013473;28;20042;-87
2021/08/25 01:55:15;;;;;;;2.13;1.33;;;;;;;18.66;68.47;100051.81;5012834;28;20124;-86
2021/08/25 01:57:42;;;;;;;1.95;1.60;;;;;;;18.77;68.35;100049.09;5013753;28;20455;-87
2021/08/25 02:00:09;;;;;;;2.97;1.80;;;;;;;18.67;68.77;100048.19;5012434;28;20099;-87
2021/08/25 02:02:36;;;;;;;5.22;1.75;;;;;;;18.57;69.05;100055.22;5012539;28;20074;-87
2021/08/25 02:05:04;;;;;;;3.78;1.60;;;;;;;18.49;69.79;100049.78;5012319;28;20042;-87
2021/08/25 02:07:30;;;;;;;2.58;1.30;;;;;;;18.61;69.12;100051.38;5012311;28;20042;-87
2021/08/25 02:09:59;;;;;;;2.17;1.73;;;;;;;18.53;69.52;100044.09;5012522;28;20128;-87
2021/08/25 02:12:26;;;;;;;7.63;2.50;;;;;;;18.69;68.85;100041.00;5012404;28;20096;-87
2021/08/25 02:14:53;;;;;;;6.53;1.80;;;;;;;18.90;67.90;100032.16;5012846;28;20054;-87
2021/08/25 02:17:19;;;;;;;3.03;1.70;;;;;;;18.81;68.58;100039.13;5012174;28;20104;-87
2021/08/25 02:19:46;;;;;;;4.15;1.80;;;;;;;18.86;68.18;100036.06;5012476;28;20042;-87
2021/08/25 02:22:13;;;;;;;6.82;2.17;;;;;;;18.75;68.70;100031.69;5011994;28;20115;-87
2021/08/25 02:24:40;;;;;;;2.58;1.85;;;;;;;18.64;69.26;100040.53;5015163;28;20077;-85
2021/08/25 02:27:06;;;;;;;2.30;1.85;;;;;;;18.56;69.74;100032.44;5015359;28;20103;-86
2021/08/25 02:29:33;;;;;;;2.97;1.90;;;;;;;18.79;69.18;100038.38;5015888;28;20052;-86
2021/08/25 02:32:00;;;;;;;3.35;1.77;;;;;;;18.52;70.23;100031.88;5016048;28;20107;-87
2021/08/25 02:34:26;;;;;;;3.17;1.90;;;;;;;18.57;69.99;100039.41;5015767;28;20046;-86
2021/08/25 02:36:53;;;;;;;4.43;1.80;;;;;;;18.58;70.08;100041.91;5016430;28;20050;-86
2021/08/25 02:39:20;;;;;;;2.92;2.22;;;;;;;18.66;70.11;100041.25;5015665;28;20042;-86
2021/08/25 02:41:47;;;;;;;4.85;2.10;;;;;;;18.70;70.15;100040.06;5016029;28;20484;-86
2021/08/25 02:44:13;;;;;;;3.97;1.77;;;;;;;18.79;69.67;100033.09;5015198;28;20084;-87
2021/08/25 02:46:40;;;;;;;2.13;1.90;;;;;;;18.76;69.84;100033.41;5015907;28;20074;-86
2021/08/25 02:49:07;;;;;;;3.47;1.83;;;;;;;18.62;71.13;100047.75;5015341;28;20488;-87
2021/08/25 02:51:34;;;;;;;4.43;2.08;;;;;;;18.59;71.57;100038.31;5015883;28;20053;-86
2021/08/25 02:54:01;;;;;;;5.47;1.85;;;;;;;18.44;72.06;100044.91;5015652;28;20088;-86
2021/08/25 02:56:27;;;;;;;6.55;2.03;;;;;;;18.42;72.62;100038.06;5015895;28;20042;-86
2021/08/25 02:58:54;;;;;;;6.13;2.15;;;;;;;18.27;73.18;100038.44;5015579;28;20046;-86
2021/08/25 03:01:21;;;;;;;3.28;1.80;;;;;;;18.21;73.50;100038.94;5015478;28;20042;-86
2021/08/25 03:03:48;;;;;;;2.22;1.55;;;;;;;18.12;73.97;100039.75;5015837;28;20038;-86
2021/08/25 03:06:15;;;;;;;2.50;1.45;;;;;;;18.20;73.82;100037.28;5014760;28;20042;-88
2021/08/25 03:08:41;;;;;;;3.53;1.50;;;;;;;18.18;73.83;100038.38;5015206;28;20046;-87
2021/08/25 03:11:09;;;;;;;2.22;1.92;;;;;;;18.23;73.93;100030.91;5015047;28;20046;-88
2021/08/25 03:13:38;;;;;;;4.30;1.85;;;;;;;18.31;73.12;100033.72;5015434;28;20045;-87
2021/08/25 03:16:05;;;;;;;3.60;1.50;;;;;;;18.31;73.37;100036.34;5030268;28;20095;-87
2021/08/25 03:18:32;;;;;;;3.17;1.77;;;;;;;18.32;73.28;100041.53;5015051;28;20619;-86
2021/08/25 03:20:58;;;;;;;1.98;1.30;;;;;;;18.27;73.55;100037.59;5015219;28;20420;-84
2021/08/25 03:23:25;;;;;;;5.93;2.08;;;;;;;18.26;73.35;100031.47;5015251;28;20443;-83
2021/08/25 03:25:53;;;;;;;2.00;1.50;;;;;;;18.18;73.96;100033.09;5015271;28;20053;-84
2021/08/25 03:28:20;;;;;;;3.72;1.55;;;;;;;18.17;74.14;100027.00;5014980;28;20492;-83
2021/08/25 03:30:47;;;;;;;3.90;1.63;;;;;;;18.21;73.60;100028.38;5015241;28;20064;-84
2021/08/25 03:33:13;;;;;;;3.10;1.60;;;;;;;18.35;72.93;100018.47;5014606;28;20049;-83
2021/08/25 03:35:40;;;;;;;2.38;1.45;;;;;;;18.26;73.27;100015.63;5014342;28;20038;-83
2021/08/25 03:38:07;;;;;;;2.90;1.45;;;;;;;18.43;72.43;100016.00;5014459;28;20045;-83
2021/08/25 03:40:33;;;;;;;1.85;1.52;;;;;;;18.19;73.79;100011.03;5014602;28;20076;-83
2021/08/25 03:43:00;;;;;;;1.85;1.48;;;;;;;18.19;73.63;100009.22;5014415;28;20038;-83
2021/08/25 03:45:27;;;;;;;1.67;1.50;;;;;;;18.27;73.35;100001.50;5014899;28;20076;-84
2021/08/25 03:47:53;;;;;;;5.03;1.90;;;;;;;18.31;73.27;99997.59;5014377;28;20046;-84
2021/08/25 03:50:21;;;;;;;1.48;1.23;;;;;;;18.23;73.17;100000.09;5014754;28;20127;-83
2021/08/25 03:52:47;;;;;;;2.47;1.88;;;;;;;18.00;74.34;99994.16;5014655;28;20076;-83
2021/08/25 03:55:14;;;;;;;2.08;1.73;;;;;;;17.82;75.50;99994.84;5014220;28;20125;-83
2021/08/25 03:57:41;;;;;;;2.35;1.40;;;;;;;18.14;74.50;99987.69;5014775;28;20046;-83
2021/08/25 04:00:08;;;;;;;3.05;2.33;;;;;;;18.10;74.20;99986.25;5014096;28;20123;-83
2021/08/25 04:02:38;;;;;;;1.58;1.17;;;;;;;18.04;74.86;99984.16;5014403;28;20046;-83
2021/08/25 04:05:05;;;;;;;3.45;1.40;;;;;;;17.96;74.39;99992.72;5014153;28;20050;-83
2021/08/25 04:07:32;;;;;;;1.70;1.48;;;;;;;18.15;74.09;99997.25;5014473;28;20479;-84
2021/08/25 04:09:59;;;;;;;1.70;1.40;;;;;;;18.16;73.68;99998.91;5013984;28;20069;-85
2021/08/25 04:12:26;;;;;;;3.42;1.60;;;;;;;18.49;72.21;100002.28;5014299;28;20049;-83
2021/08/25 04:14:53;;;;;;;2.20;1.50;;;;;;;18.23;72.98;99999.25;5014469;28;20475;-83
2021/08/25 04:17:19;;;;;;;2.67;1.60;;;;;;;18.02;73.74;100001.91;5014073;28;20046;-83
2021/08/25 04:19:46;;;;;;;4.75;1.60;;;;;;;17.95;74.18;100009.53;5013916;28;20033;-83
2021/08/25 04:22:13;;;;;;;1.67;1.58;;;;;;;18.04;74.40;100011.34;5013987;28;20042;-82
2021/08/25 04:24:40;;;;;;;2.28;1.42;;;;;;;18.22;73.42;100010.78;5013970;28;20096;-81
2021/08/25 04:27:06;;;;;;;5.60;1.67;;;;;;;18.01;74.30;100016.09;5013633;28;20045;-82
2021/08/25 04:29:33;;;;;;;2.60;1.88;;;;;;;18.24;72.60;100011.47;5014101;28;20451;-83
2021/08/25 04:32:00;;;;;;;1.88;1.17;;;;;;;18.37;72.82;100012.06;5013656;28;20165;-83
2021/08/25 04:34:26;;;;;;;1.73;1.20;;;;;;;18.27;72.61;100014.69;5013919;28;20046;-83
2021/08/25 04:36:53;;;;;;;2.40;1.65;;;;;;;18.45;71.87;100019.34;5013274;28;20049;-84
2021/08/25 04:39:20;;;;;;;1.52;1.42;;;;;;;18.35;72.14;100018.47;5013695;28;20500;-84
2021/08/25 04:41:46;;;;;;;2.22;1.40;;;;;;;18.30;72.32;100016.22;5013941;28;20103;-81
2021/08/25 04:44:13;;;;;;;2.55;1.52;;;;;;;18.22;72.92;100019.53;5013343;28;20112;-83
2021/08/25 04:46:40;;;;;;;2.05;1.40;;;;;;;18.24;73.05;100022.03;5013514;28;20045;-82
2021/08/25 04:49:07;;;;;;;3.78;1.40;;;;;;;18.37;72.45;100013.88;5013374;28;20128;-83
2021/08/25 04:51:33;;;;;;;3.83;1.38;;;;;;;18.45;71.89;100012.25;5013458;28;20046;-82
2021/08/25 04:54:00;;;;;;;3.40;1.35;;;;;;;19.71;66.87;100009.88;5013262;28;20046;-82
2021/08/25 04:56:27;;;;;;;3.03;1.50;;;;;;;19.56;67.00;100008.63;5013174;28;20046;-82
2021/08/25 04:58:53;;;;;;;2.08;1.10;;;;;;;19.96;65.29;100010.25;5012913;28;20061;-82
2021/08/25 05:01:20;;;;;;;2.45;1.65;;;;;;;19.99;65.12;100017.91;5013154;28;20038;-82
2021/08/25 05:03:47;;;;;;;2.38;1.55;;;;;;;19.95;65.21;100016.53;5013499;28;20048;-83
2021/08/25 05:06:14;;;;;;;2.55;1.40;;;;;;;20.19;64.30;100013.38;5013011;28;20041;-83
2021/08/25 05:08:41;;;;;;;4.63;1.33;;;;;;;20.73;62.61;100015.31;5013310;28;20120;-83
2021/08/25 05:11:09;;;;;;;3.05;1.73;;;;;;;20.51;62.97;100013.06;5013017;28;20065;-83
2021/08/25 05:13:38;;;;;;;2.22;1.40;;;;;;;20.86;61.98;100012.28;5013106;28;20041;-82
2021/08/25 05:16:11;;;;;;;2.53;1.60;;;;;;;20.97;61.47;100011.25;5012528;28;20037;-82
2021/08/25 05:18:39;;;;;;;3.53;1.55;;;;;;;20.40;63.34;100012.22;5013340;28;20057;-83
2021/08/25 05:21:06;;;;;;;1.67;1.02;;;;;;;19.91;65.38;100021.25;5012832;28;20038;-85
2021/08/25 05:23:33;;;;;;;2.65;1.30;;;;;;;19.85;65.68;100022.66;5012911;28;20078;-85
2021/08/25 05:26:00;;;;;;;1.67;1.23;;;;;;;20.04;65.38;100028.91;5011662;28;20054;-85
2021/08/25 05:28:27;;;;;;;3.08;1.38;;;;;;;20.02;65.87;100028.19;5012696;28;20052;-89
2021/08/25 05:30:53;;;;;;;1.48;1.27;;;;;;;20.18;65.25;100046.13;5011426;28;20053;-88
2021/08/25 05:33:20;;;;;;;0.98;0.98;;;;;;;20.35;64.67;100034.81;5000769;28;20042;-86
2021/08/25 05:35:47;;;;;;;1.42;1.33;;;;;;;20.34;64.79;100044.53;5007661;28;20447;-88
2021/08/25 05:38:14;;;;;;;3.55;1.40;;;;;;;20.46;64.57;100042.59;5005253;28;20477;-90
2021/08/25 05:40:41;;;;;;;2.00;1.17;;;;;;;20.36;65.25;100039.97;5006496;28;20034;-88
2021/08/25 05:43:08;;;;;;;2.28;1.92;;;;;;;20.50;64.39;100029.88;5008614;28;20069;-86
2021/08/25 05:45:35;;;;;;;1.98;1.67;;;;;;;20.64;64.01;100029.41;5004750;28;20038;-86
2021/08/25 05:48:01;;;;;;;2.22;1.50;;;;;;;20.76;63.63;100030.88;5003269;28;20048;-84
2021/08/25 05:50:28;;;;;;;3.05;1.63;;;;;;;20.97;63.59;100029.81;5005845;28;20050;-82
2021/08/25 05:52:55;;;;;;;4.03;1.95;;;;;;;21.24;62.59;100027.09;5015588;28;20075;-82
2021/08/25 05:55:21;;;;;;;3.08;1.30;;;;;;;21.35;60.92;100040.16;5004114;28;20136;-83
2021/08/25 05:57:48;;;;;;;2.25;2.00;;;;;;;21.36;61.46;100030.41;5007905;28;20084;-82
2021/08/25 06:00:17;;;;;;;4.50;2.35;;;;;;;21.36;61.63;100036.56;5013483;28;20108;-82
2021/08/25 06:02:49;;;;;;;;;;;;;;;21.74;60.71;100034.56;5009186;28;20096;-84
2021/08/25 06:05:17;;;;;;;2.42;1.90;;;;;;;21.73;61.30;100035.53;5014265;28;20023;-84
2021/08/25 06:07:43;;;;;;;3.35;2.35;;;;;;;21.28;63.64;100047.03;5013234;28;20439;-85
2021/08/25 06:10:10;;;;;;;3.30;1.95;;;;;;;20.81;65.09;100047.16;5011392;28;20041;-85
2021/08/25 06:12:37;;;;;;;7.57;2.03;;;;;;;20.34;66.64;100065.72;5013785;28;20377;-84
2021/08/25 06:15:05;;;;;;;4.30;1.67;;;;;;;20.10;67.89;100058.25;5012992;28;20084;-90
2021/08/25 06:17:32;;;;;;;2.08;1.65;;;;;;;20.48;66.62;100066.28;5014265;28;20400;-85
2021/08/25 06:19:58;;;;;;;4.43;1.77;;;;;;;20.97;64.59;100072.19;5012278;28;20030;-82
2021/08/25 06:22:25;;;;;;;2.97;1.42;;;;;;;20.99;64.65;100071.09;5012336;28;20042;-84
2021/08/25 06:24:52;;;;;;;1.90;1.35;;;;;;;20.92;65.47;100075.28;5013121;28;20485;-86
2021/08/25 06:27:18;;;;;;;2.75;1.60;;;;;;;21.06;64.90;100081.91;5011305;28;20046;-84
2021/08/25 06:29:45;;;;;;;1.80;1.40;;;;;;;21.06;64.64;100082.75;5012263;28;20404;-84
2021/08/25 06:32:12;;;;;;;5.85;1.65;;;;;;;21.29;63.72;100084.97;5012737;28;20370;-85
2021/08/25 06:34:39;;;;;;;2.97;1.98;;;;;;;22.20;60.46;100088.34;5009516;28;20537;-82
2021/08/25 06:37:05;;;;;;;5.53;1.48;;;;;;;21.65;61.78;100091.19;5013041;28;20069;-83
2021/08/25 06:39:33;;;;;;;3.55;1.45;;;;;;;22.63;57.79;100091.91;5008712;28;20100;-84
2021/08/25 06:42:00;;;;;;;4.40;1.65;;;;;;;22.19;58.12;100092.00;5010920;28;20033;-85
2021/08/25 06:44:27;;;;;;;1.95;1.55;;;;;;;21.90;58.50;100095.72;5009699;28;20077;-81
2021/08/25 06:46:54;;;;;;;2.15;1.70;;;;;;;21.78;58.70;100102.22;5009981;28;20046;-83
2021/08/25 06:49:20;;;;;;;3.35;1.30;;;;;;;21.57;58.83;100099.06;5012831;28;20041;-85
2021/08/25 06:51:47;;;;;;;4.72;1.33;;;;;;;21.50;59.47;100098.00;5011083;28;20072;-84
2021/08/25 06:54:14;;;;;;;1.95;1.40;;;;;;;21.61;58.68;100103.91;5012336;28;20096;-84
2021/08/25 06:56:41;;;;;;;6.45;1.60;;;;;;;21.71;57.88;100093.22;5013236;28;20037;-83
2021/08/25 06:59:07;;;;;;;9.57;1.90;;;;;;;21.58;58.07;100100.75;5009862;28;20431;-84
2021/08/25 07:01:34;;;;;;;2.55;1.67;;;;;;;21.26;58.26;100102.03;5009559;28;20112;-84
2021/08/25 07:04:01;;;;;;;2.65;1.98;;;;;;;21.09;59.66;100102.81;5009787;28;20054;-85
2021/08/25 07:06:28;;;;;;;2.67;1.80;;;;;;;21.01;59.74;100110.69;5010655;28;20041;-84
2021/08/25 07:08:55;;;;;;;2.72;1.75;;;;;;;21.11;60.04;100100.88;4998569;28;20042;-85
2021/08/25 07:11:21;;;;;;;6.20;1.95;;;;;;;20.85;61.23;100101.53;5001152;28;20077;-87
2021/08/25 07:13:48;;;;;;;4.85;2.40;;;;;;;20.81;61.80;100096.69;5008848;28;20038;-86
2021/08/25 07:16:16;;;;;;;3.30;2.63;;;;;;;20.74;62.75;100088.47;5012451;28;20077;-88
2021/08/25 07:18:43;;;;;;;7.32;2.58;;;;;;;20.90;62.57;100087.84;5009199;28;20035;-89
2021/08/25 07:21:11;;;;;;;5.03;2.40;;;;;;;20.75;62.33;100084.84;5007890;28;20041;-88
2021/08/25 07:23:38;;;;;;;3.45;2.55;;;;;;;20.63;63.64;100093.97;5018665;28;20370;-85
2021/08/25 07:26:05;;;;;;;5.57;2.95;;;;;;;20.79;63.78;100093.34;5001934;28;20389;-84
2021/08/25 07:28:32;;;;;;;3.72;2.65;;;;;;;20.87;63.28;100094.28;5003156;28;20049;-95
2021/08/25 07:30:59;;;;;;;3.30;2.10;;;;;;;20.69;62.83;100106.63;5005839;28;20037;-87
2021/08/25 07:33:26;;;;;;;3.70;3.00;;;;;;;20.84;64.13;100099.88;5003814;28;20554;-89
2021/08/25 07:35:52;;;;;;;3.50;2.78;;;;;;;20.67;64.22;100104.13;4998076;28;20038;-91
2021/08/25 07:38:19;;;;;;;5.30;3.58;;;;;;;20.54;64.71;100103.59;5000332;28;20728;-90
2021/08/25 07:40:46;;;;;;;7.30;5.40;;;;;;;20.97;64.21;100109.28;4999432;28;20045;-95
2021/08/25 07:43:16;;;;;;;12.60;5.45;;;;;;;20.71;65.51;100117.06;4997169;28;20042;-90
2021/08/25 07:45:42;;;;;;;6.90;4.65;;;;;;;20.63;66.55;100108.03;4999394;28;20057;-96
2021/08/25 07:48:09;;;;;;;5.90;4.28;;;;;;;20.45;67.77;100114.19;4999848;28;20064;-91
2021/08/25 07:50:36;;;;;;;8.35;4.78;;;;;;;20.81;67.40;100120.53;5008448;28;20092;-93
2021/08/25 07:53:03;;;;;;;6.30;4.50;;;;;;;20.51;70.62;100113.66;5004887;28;20247;-94
2021/08/25 07:55:30;;;;;;;6.05;4.72;;;;;;;20.84;69.53;100107.00;5002595;28;20141;-90
2021/08/25 07:57:57;;;;;;;6.00;4.15;;;;;;;21.79;66.38;100101.28;4999276;28;20412;-85
2021/08/25 08:00:24;;;;;;;6.40;4.28;;;;;;;22.55;62.47;100097.19;4997191;28;20049;-87
2021/08/25 08:02:51;;;;;;;6.75;4.70;;;;;;;22.61;61.59;100099.22;4998838;28;20070;-93
2021/08/25 08:05:19;;;;;;;4.47;4.07;;;;;;;22.39;61.93;100109.38;5008242;28;20034;-86
2021/08/25 08:07:46;;;;;;;5.50;3.75;;;;;;;22.38;62.68;100097.09;5015955;28;20104;-85
2021/08/25 08:10:12;;;;;;;3.65;3.13;;;;;;;21.99;63.90;100096.59;5010447;28;20068;-87
2021/08/25 08:12:39;;;;;;;3.35;3.03;;;;;;;21.81;63.50;100101.94;5010933;28;20484;-85
2021/08/25 08:15:11;;;;;;;3.72;2.97;;;;;;;21.83;63.33;100093.81;5011865;28;20493;-87
2021/08/25 08:17:40;;;;;;;3.15;2.33;;;;;;;21.97;63.38;100093.28;5007568;28;20030;-91
2021/08/25 08:20:07;;;;;;;2.92;2.55;;;;;;;23.43;57.97;100081.75;5010886;28;20050;-89
2021/08/25 08:22:34;;;;;;;4.72;2.90;;;;;;;24.05;55.73;100083.00;5009925;28;20542;-87
2021/08/25 08:25:01;;;;;;;3.40;2.67;;;;;;;24.05;55.63;100090.16;5010002;28;20046;-87
2021/08/25 08:27:28;;;;;;;7.30;2.50;;;;;;;23.96;55.23;100094.66;5008208;28;20038;-87
2021/08/25 08:29:55;;;;;;;5.63;2.75;;;;;;;23.58;56.98;100089.94;5009980;28;20046;-87
2021/08/25 08:32:21;;;;;;;5.25;2.42;;;;;;;24.19;54.78;100094.81;5009846;28;20078;-85
2021/08/25 08:34:48;;;;;;;7.00;3.05;;;;;;;24.13;54.70;100087.50;5010753;28;20046;-87
2021/08/25 08:37:15;;;;;;;5.20;2.72;;;;;;;23.28;56.87;100086.91;5010986;28;20034;-87
2021/08/25 08:39:42;;;;;;;6.15;2.53;;;;;;;22.81;59.06;100086.53;5009871;28;20038;-89
2021/08/25 08:42:34;;;;;;;4.15;2.15;;;;;;;23.31;57.61;100080.41;5007862;28;20515;-86
2021/08/25 08:45:04;;;;;;;4.82;2.10;;;;;;;22.97;58.59;100081.31;5008520;28;20038;-88
2021/08/25 08:47:31;;;;;;;2.97;2.25;;;;;;;22.44;61.63;100079.72;5009064;28;20069;-87
2021/08/25 08:49:59;;;;;;;3.10;2.45;;;;;;;22.52;61.53;100082.41;5007463;28;20100;-87
2021/08/25 08:52:27;;;;;;;3.25;2.22;;;;;;;22.14;64.84;100073.03;5011219;28;20049;-87
2021/08/25 08:54:57;;;;;;;5.20;2.05;;;;;;;22.54;63.56;100083.09;5009086;28;20045;-89
2021/08/25 08:57:24;;;;;;;18.70;3.30;;;;;;;22.38;63.44;100081.19;4998493;28;20046;-90
2021/08/25 08:59:51;;;;;;;5.10;3.05;;;;;;;22.47;62.68;100084.69;5008458;28;20042;-88
2021/08/25 09:02:41;;;;;;;4.93;3.30;;;;;;;22.85;61.63;100079.91;5006634;28;20504;-86
2021/08/25 09:05:24;;;;;;;5.45;3.40;;;;;;;22.77;61.66;100079.88;5010184;28;20038;-85
2021/08/25 09:07:58;;;;;;;6.47;3.00;;;;;;;23.11;60.54;100087.84;5007660;28;20424;-87
2021/08/25 09:10:28;;;;;;;6.78;3.03;;;;;;;23.19;60.31;100071.91;5006494;28;20050;-87
2021/08/25 09:13:01;;;;;;;4.43;2.30;;;;;;;23.69;57.94;100076.34;5004965;28;20046;-86
2021/08/25 09:15:30;;;;;;;5.90;3.30;;;;;;;23.70;57.54;100070.03;5009125;28;20042;-88
2021/08/25 09:18:03;;;;;;;4.20;2.55;;;;;;;23.28;59.29;100070.97;5008160;28;20034;-86
2021/08/25 09:20:32;;;;;;;4.57;2.97;;;;;;;23.63;58.07;100075.19;5009956;28;20149;-87
2021/08/25 09:23:14;;;;;;;3.88;2.30;;;;;;;23.18;58.46;100078.25;5010925;28;20065;-88
2021/08/25 09:25:44;;;;;;;12.27;4.15;;;;;;;23.39;58.76;100070.66;5007318;28;20046;-90
2021/08/25 09:28:16;;;;;;;7.60;3.05;;;;;;;22.62;60.78;100067.19;5007110;28;20455;-88
2021/08/25 09:30:54;;;;;;;8.18;4.35;;;;;;;22.68;60.83;100063.88;5006125;28;20107;-88
2021/08/25 09:33:28;;;;;;;4.05;2.92;;;;;;;22.36;61.22;100067.19;5008497;28;20042;-88
2021/08/25 09:35:58;;;;;;;6.70;2.83;;;;;;;22.58;60.68;100072.97;5009313;28;20041;-85
2021/08/25 09:38:27;;;;;;;5.07;3.55;;;;;;;22.95;60.19;100068.19;5009729;28;20099;-87
2021/08/25 09:41:00;;;;;;;3.10;2.70;;;;;;;22.55;60.34;100063.50;5008654;28;20093;-88
2021/08/25 09:43:30;;;;;;;7.82;2.75;;;;;;;22.99;58.09;100053.56;5005295;28;20042;-88
2021/08/25 09:46:04;;;;;;;4.00;3.33;;;;;;;23.24;58.16;100051.00;5003057;28;20038;-90
2021/08/25 09:48:59;;;;;;;2.65;2.38;;;;;;;24.11;56.28;100054.88;5010125;28;20050;-91
2021/08/25 09:51:36;;;;;;;5.55;3.17;;;;;;;23.68;57.46;100058.72;5008132;28;20053;-91
2021/08/25 09:54:11;;;;;;;6.85;3.00;;;;;;;23.11;60.21;100048.78;5006577;28;20046;-86
2021/08/25 09:56:40;;;;;;;9.65;3.58;;;;;;;23.16;59.72;100051.78;5008699;28;20133;-86
2021/08/25 09:59:09;;;;;;;4.78;3.10;;;;;;;23.16;60.03;100045.66;5010390;28;20473;-86
2021/08/25 10:01:37;;;;;;;7.38;3.05;;;;;;;23.40;59.03;100044.88;5008346;28;20065;-93
2021/08/25 10:04:07;;;;;;;5.35;3.25;;;;;;;23.22;59.57;100037.00;5011502;28;20136;-92
2021/08/25 10:06:44;;;;;;;6.60;3.03;;;;;;;23.27;59.82;100040.00;5009040;28;20156;-96
2021/08/25 10:09:18;;;;;;;6.38;3.92;;;;;;;22.81;60.80;100038.72;5007941;28;20057;-93
2021/08/25 10:11:56;;;;;;;8.85;3.88;;;;;;;23.41;58.85;100035.88;5009042;28;20069;-96
2021/08/25 10:14:30;;;;;;;4.60;3.72;;;;;;;24.14;57.40;100037.75;5012828;28;20046;-89
2021/08/25 10:17:37;;;;;;;6.65;3.28;;;;;;;24.57;53.89;100028.50;5012988;28;20049;-96
2021/08/25 10:20:34;;;;;;;9.20;3.80;;;;;;;23.85;56.43;100032.94;5009597;28;20104;-93
2021/08/25 10:23:03;;;;;;;5.30;4.05;;;;;;;23.93;56.78;100023.13;5004718;28;20126;-96
2021/08/25 10:25:30;;;;;;;4.20;3.40;;;;;;;24.24;55.59;100017.91;5008692;28;20167;-95
2021/08/25 10:28:05;;;;;;;5.20;3.58;;;;;;;23.81;56.75;100016.50;5011281;28;20460;-92
2021/08/25 10:30:44;;;;;;;5.10;3.72;;;;;;;23.66;57.77;100010.16;5011110;28;20114;-93
2021/08/25 10:33:12;;;;;;;6.20;3.58;;;;;;;24.38;55.01;100008.41;5013834;28;20065;-95
2021/08/25 10:35:44;;;;;;;13.98;3.90;;;;;;;24.52;54.48;100007.69;5007166;28;20515;-93
2021/08/25 10:38:14;;;;;;;7.38;3.65;;;;;;;24.07;56.37;99999.47;5011678;28;20038;-92
2021/08/25 10:40:54;;;;;;;6.00;3.33;;;;;;;23.97;56.47;99999.63;5025479;28;20105;-96
2021/08/25 10:43:37;;;;;;;4.95;2.63;;;;;;;24.51;54.01;99998.03;5013876;28;20054;-96
2021/08/25 10:46:06;;;;;;;7.20;3.60;;;;;;;24.00;55.12;99992.16;5014967;28;20134;-92
2021/08/25 10:48:43;;;;;;;4.53;2.40;;;;;;;24.78;52.20;99990.59;5014008;28;20045;-89
2021/08/25 10:51:32;;;;;;;3.95;2.72;;;;;;;24.92;51.78;99989.00;5012385;28;20053;-93
2021/08/25 10:54:03;;;;;;;5.43;2.45;;;;;;;24.59;52.12;99986.50;5010076;28;20046;-89
2021/08/25 10:56:40;;;;;;;3.10;2.15;;;;;;;24.12;53.09;99991.78;5017101;28;20057;-93
2021/08/25 10:59:09;;;;;;;3.15;1.90;;;;;;;24.30;52.82;99979.94;4994717;28;20141;-94
2021/08/25 11:01:37;;;;;;;4.45;2.15;;;;;;;25.05;51.12;99971.44;5020877;28;20030;-94
2021/08/25 11:04:10;;;;;;;3.05;1.90;;;;;;;24.17;52.78;99973.47;5012285;28;20060;-92
2021/08/25 11:06:47;;;;;;;6.68;2.28;;;;;;;24.44;51.91;99975.72;5013233;28;20050;-94
2021/08/25 11:09:13;;;;;;;2.50;2.28;;;;;;;24.83;50.87;99965.06;5014257;28;20133;-89
2021/08/25 11:12:02;;;;;;;3.25;1.73;;;;;;;24.98;50.31;99954.47;5008717;28;20382;-95
2021/08/25 11:14:31;;;;;;;2.65;1.50;;;;;;;25.00;48.39;99959.63;5002042;28;20485;-93
2021/08/25 11:17:04;;;;;;;3.30;1.85;;;;;;;25.54;46.94;99965.72;5011469;28;20107;-92
2021/08/25 11:19:39;;;;;;;4.95;1.58;;;;;;;25.15;47.17;99957.91;5001355;28;20096;-91
2021/08/25 11:22:12;;;;;;;3.08;2.25;;;;;;;25.32;46.88;99958.59;5003171;28;20046;-95
2021/08/25 11:24:44;;;;;;;2.38;1.80;;;;;;;24.68;48.18;99950.00;5001467;28;20042;-95
2021/08/25 11:27:23;;;;;;;2.20;1.77;;;;;;;24.91;48.25;99950.84;5018806;28;20046;-91
2021/08/25 11:30:07;;;;;;;5.18;2.00;;;;;;;24.97;50.77;99952.78;5020855;28;20034;-96
2021/08/25 11:32:59;;;;;;;3.60;2.13;;;;;;;24.67;50.87;99941.16;5025464;28;20036;-93
2021/08/25 11:35:32;;;;;;;5.10;1.80;;;;;;;25.53;48.78;99944.56;5011406;28;20042;-91